Time;durP1;ratioP1;P1;durP2;ratioP2;P2;SDS_P1;SDS_P2;PMS_P1;PMS_P2;Temp;Humidity;BMP_temperature;BMP_pressure;BME280_temperature;BME280_humidity;BME280_pressure;Samples;Min_cycle;Max_cycle;Signal;HPM_P1;HPM_P2
2021/04/22 00:00:08;;;;;;;15.43;4.25;;;;;;;3.52;67.23;102707.88;5036616;28;20156;-71
2021/04/22 00:02:36;;;;;;;19.27;4.65;;;;;;;3.46;67.58;102713.88;5035119;28;20065;-71
2021/04/22 00:05:13;;;;;;;25.92;5.28;;;;;;;3.47;67.19;102728.84;5033830;28;20056;-71
2021/04/22 00:07:40;;;;;;;18.52;4.90;;;;;;;3.46;67.46;102729.72;5036834;28;20056;-71
2021/04/22 00:10:11;;;;;;;18.73;4.60;;;;;;;3.48;66.99;102738.56;5032778;28;20079;-71
2021/04/22 00:12:38;;;;;;;20.67;5.10;;;;;;;3.41;67.45;102733.09;5039330;28;20115;-71
2021/04/22 00:15:09;;;;;;;14.93;5.03;;;;;;;3.39;67.18;102734.78;5027152;28;20057;-74
2021/04/22 00:17:36;;;;;;;13.10;4.18;;;;;;;3.35;67.53;102737.34;5055198;28;20385;-74
2021/04/22 00:20:04;;;;;;;20.17;5.65;;;;;;;3.40;67.54;102729.53;5032938;28;20337;-74
2021/04/22 00:22:31;;;;;;;22.88;5.47;;;;;;;3.38;67.44;102733.88;5039193;28;20057;-73
2021/04/22 00:24:58;;;;;;;18.60;5.03;;;;;;;3.32;67.74;102737.25;5034274;28;20091;-73
2021/04/22 00:27:25;;;;;;;14.50;3.90;;;;;;;3.32;67.81;102731.97;5036086;28;20057;-74
2021/04/22 00:29:52;;;;;;;22.25;4.85;;;;;;;3.35;67.90;102737.34;5036142;28;20227;-74
2021/04/22 00:32:19;;;;;;;15.45;4.55;;;;;;;3.35;67.19;102737.34;5036182;28;20063;-73
2021/04/22 00:34:47;;;;;;;15.23;5.13;;;;;;;3.31;67.34;102739.84;5037676;28;20065;-73
2021/04/22 00:37:14;;;;;;;19.48;4.47;;;;;;;3.24;67.81;102746.69;5039159;28;20072;-76
2021/04/22 00:39:42;;;;;;;15.38;4.40;;;;;;;3.22;68.20;102751.03;5040516;28;20053;-73
2021/04/22 00:42:09;;;;;;;11.93;3.97;;;;;;;3.22;67.63;102742.22;5038808;28;20071;-75
2021/04/22 00:44:36;;;;;;;10.95;4.15;;;;;;;3.18;68.10;102752.69;5041381;28;20139;-75
2021/04/22 00:47:03;;;;;;;17.40;4.40;;;;;;;3.16;68.10;102745.56;5042393;28;20134;-73
2021/04/22 00:49:30;;;;;;;25.33;5.13;;;;;;;3.20;67.41;102750.06;5037001;28;20061;-72
2021/04/22 00:51:58;;;;;;;16.02;4.57;;;;;;;3.19;68.10;102756.22;5053312;28;20067;-75
2021/04/22 00:54:26;;;;;;;20.73;4.95;;;;;;;3.13;68.00;102751.69;5040342;28;20053;-73
2021/04/22 00:56:53;;;;;;;15.20;4.20;;;;;;;3.15;67.46;102764.88;5040537;28;20152;-73
2021/04/22 00:59:20;;;;;;;26.30;5.80;;;;;;;3.11;67.74;102758.63;5038300;28;20539;-74
2021/04/22 01:01:47;;;;;;;12.48;4.07;;;;;;;3.02;68.03;102761.00;5040511;28;20060;-74
2021/04/22 01:04:14;;;;;;;12.93;4.00;;;;;;;3.02;68.29;102761.00;5035081;28;20110;-73
2021/04/22 01:06:42;;;;;;;17.67;4.78;;;;;;;3.06;68.46;102762.88;5040006;28;20057;-74
2021/04/22 01:09:14;;;;;;;16.20;4.32;;;;;;;3.07;67.80;102748.84;5042404;28;20061;-74
2021/04/22 01:11:42;;;;;;;19.80;5.13;;;;;;;3.05;67.79;102747.91;5039984;28;20421;-74
2021/04/22 01:14:09;;;;;;;19.10;4.57;;;;;;;3.10;68.42;102758.56;5042042;28;20148;-74
2021/04/22 01:16:36;;;;;;;15.98;4.95;;;;;;;3.11;67.84;102758.63;5037651;28;20061;-74
2021/04/22 01:19:05;;;;;;;20.50;5.75;;;;;;;3.11;68.62;102757.75;5041911;28;20205;-74
2021/04/22 01:21:33;;;;;;;15.10;4.68;;;;;;;3.03;68.28;102756.63;5035970;28;20159;-73
2021/04/22 01:24:00;;;;;;;17.63;4.20;;;;;;;3.05;67.88;102760.19;5035188;28;20083;-74
2021/04/22 01:26:27;;;;;;;14.55;4.25;;;;;;;3.02;68.42;102757.47;5038302;28;20133;-73
2021/04/22 01:28:54;;;;;;;10.82;4.20;;;;;;;2.99;68.10;102758.28;5040358;28;20061;-76
2021/04/22 01:31:22;;;;;;;20.40;5.88;;;;;;;2.99;68.08;102761.78;5043367;28;20095;-73
2021/04/22 01:33:49;;;;;;;12.10;4.40;;;;;;;2.94;68.34;102768.66;5037734;28;20187;-73
2021/04/22 01:36:16;;;;;;;13.45;3.90;;;;;;;2.91;67.89;102773.88;5041052;28;20104;-75
2021/04/22 01:38:44;;;;;;;14.77;4.90;;;;;;;2.94;68.36;102773.94;5037301;28;20156;-75
2021/04/22 01:41:12;;;;;;;16.38;5.07;;;;;;;3.00;68.27;102778.53;5039471;28;20294;-75
2021/04/22 01:43:39;;;;;;;17.52;5.03;;;;;;;2.97;68.52;102771.41;5035951;28;20123;-71
2021/04/22 01:46:06;;;;;;;16.02;5.40;;;;;;;3.07;67.75;102771.69;5039991;28;20374;-71
2021/04/22 01:48:33;;;;;;;16.95;5.18;;;;;;;3.06;68.27;102778.69;5037708;28;20065;-71
2021/04/22 01:51:02;;;;;;;15.95;5.25;;;;;;;3.10;68.16;102777.03;5038879;28;20083;-71
2021/04/22 01:53:28;;;;;;;12.13;4.72;;;;;;;3.09;67.77;102784.06;5038855;28;20064;-71
2021/04/22 01:55:56;;;;;;;11.98;4.38;;;;;;;3.03;67.67;102780.34;5039455;28;20144;-71
2021/04/22 01:58:27;;;;;;;13.25;4.55;;;;;;;3.01;67.82;102782.94;5039184;28;20143;-72
2021/04/22 02:00:56;;;;;;;14.82;4.68;;;;;;;3.05;67.93;102790.13;5039832;28;20402;-71
2021/04/22 02:03:25;;;;;;;18.10;4.70;;;;;;;3.06;68.10;102791.00;5039255;28;20056;-71
2021/04/22 02:05:52;;;;;;;13.60;4.80;;;;;;;3.04;67.57;102785.69;5040344;28;20052;-71
2021/04/22 02:08:19;;;;;;;14.35;4.93;;;;;;;3.04;67.42;102800.63;5036597;28;20061;-72
2021/04/22 02:10:46;;;;;;;13.32;4.80;;;;;;;2.98;68.03;102791.66;5041873;28;20136;-71
2021/04/22 02:13:16;;;;;;;17.45;4.70;;;;;;;3.00;68.42;102794.34;5039188;28;20111;-71
2021/04/22 02:15:45;;;;;;;17.85;5.28;;;;;;;3.01;68.33;102797.88;5039701;28;20053;-70
2021/04/22 02:18:12;;;;;;;20.40;5.13;;;;;;;2.93;68.57;102787.13;5039874;28;20049;-70
2021/04/22 02:20:39;;;;;;;11.32;4.15;;;;;;;2.96;68.97;102797.72;5039241;28;20051;-73
2021/04/22 02:23:07;;;;;;;16.35;4.60;;;;;;;2.94;68.65;102809.97;5037461;28;20068;-72
2021/04/22 02:25:34;;;;;;;16.52;5.53;;;;;;;2.92;69.11;102796.75;5037035;28;20057;-72
2021/04/22 02:28:02;;;;;;;14.52;4.20;;;;;;;2.90;68.77;102801.09;5039127;28;20490;-72
2021/04/22 02:30:32;;;;;;;22.83;4.85;;;;;;;2.83;68.94;102793.84;5036329;28;20452;-70
2021/04/22 02:33:01;;;;;;;16.00;4.68;;;;;;;2.86;68.44;102800.94;5040034;28;20451;-71
2021/04/22 02:35:29;;;;;;;13.35;4.50;;;;;;;2.82;68.62;102802.59;5035022;28;20119;-71
2021/04/22 02:37:57;;;;;;;18.70;5.25;;;;;;;2.72;68.59;102793.47;5035769;28;20263;-71
2021/04/22 02:40:26;;;;;;;15.52;4.95;;;;;;;2.75;69.14;102801.50;5034898;28;20196;-71
2021/04/22 02:42:55;;;;;;;19.05;5.18;;;;;;;2.73;68.93;102795.28;5040225;28;20098;-71
2021/04/22 02:45:27;;;;;;;15.23;4.90;;;;;;;2.69;69.14;102792.50;5035972;28;20088;-71
2021/04/22 02:47:55;;;;;;;20.23;5.18;;;;;;;2.68;69.04;102798.63;5039649;28;20061;-71
2021/04/22 02:50:24;;;;;;;15.70;4.57;;;;;;;2.59;69.05;102788.69;5035686;28;20076;-72
2021/04/22 02:52:52;;;;;;;15.13;3.85;;;;;;;2.59;69.34;102793.97;5038974;28;20570;-71
2021/04/22 02:55:19;;;;;;;17.60;5.82;;;;;;;2.54;69.49;102792.91;5054112;28;20388;-72
2021/04/22 02:58:06;;;;;;;14.07;4.78;;;;;;;2.51;69.43;102796.34;5038688;28;20053;-72
2021/04/22 03:00:33;;;;;;;12.70;4.60;;;;;;;2.51;69.59;102800.72;5035956;28;20052;-71
2021/04/22 03:03:01;;;;;;;14.60;4.40;;;;;;;2.46;69.56;102797.94;5034448;28;20148;-71
2021/04/22 03:05:28;;;;;;;18.60;5.32;;;;;;;2.36;69.82;102796.72;5041083;28;20403;-71
2021/04/22 03:07:55;;;;;;;17.90;4.70;;;;;;;2.34;70.05;102797.53;5036054;28;20145;-71
2021/04/22 03:10:24;;;;;;;14.35;4.15;;;;;;;2.35;69.74;102805.50;5037958;28;20061;-71
2021/04/22 03:12:52;;;;;;;16.25;3.88;;;;;;;2.31;69.94;102803.56;5035743;28;20501;-71
2021/04/22 03:15:19;;;;;;;15.07;4.03;;;;;;;2.34;70.00;102803.69;5036627;28;20626;-71
2021/04/22 03:17:47;;;;;;;18.20;4.70;;;;;;;2.39;69.56;102809.13;5038756;28;20064;-71
2021/04/22 03:20:17;;;;;;;14.93;4.05;;;;;;;2.38;69.71;102804.69;5035536;28;20755;-71
2021/04/22 03:22:45;;;;;;;16.70;3.97;;;;;;;2.43;69.95;102816.28;5037700;28;20371;-71
2021/04/22 03:25:14;;;;;;;12.48;4.18;;;;;;;2.40;69.99;102806.53;5038821;28;20079;-71
2021/04/22 03:27:42;;;;;;;15.27;5.22;;;;;;;2.39;69.49;102807.38;5034297;28;20062;-71
2021/04/22 03:30:11;;;;;;;13.05;3.75;;;;;;;2.34;69.78;102806.31;5037935;28;20065;-72
2021/04/22 03:32:39;;;;;;;15.73;4.20;;;;;;;2.39;69.45;102806.47;5034757;28;20083;-72
2021/04/22 03:35:07;;;;;;;16.13;4.82;;;;;;;2.33;70.43;102809.78;5037741;28;20088;-72
2021/04/22 03:37:35;;;;;;;14.60;4.07;;;;;;;2.30;70.35;102812.34;5036274;28;20053;-75
2021/04/22 03:40:03;;;;;;;14.82;4.40;;;;;;;2.29;70.21;102805.28;5039460;28;20417;-73
2021/04/22 03:42:30;;;;;;;14.00;4.53;;;;;;;2.31;70.54;102806.22;5033476;28;20436;-74
2021/04/22 03:44:57;;;;;;;17.35;4.53;;;;;;;2.33;70.46;102814.16;5039586;28;20071;-74
2021/04/22 03:47:24;;;;;;;15.70;5.03;;;;;;;2.35;70.59;102809.84;5037142;28;20061;-74
2021/04/22 03:49:51;;;;;;;18.13;4.97;;;;;;;2.34;70.23;102810.72;5036816;28;20080;-74
2021/04/22 03:52:19;;;;;;;13.30;4.30;;;;;;;2.34;69.79;102805.44;5035731;28;20060;-75
2021/04/22 03:54:47;;;;;;;16.05;4.50;;;;;;;2.29;70.39;102810.53;5033527;28;20061;-73
2021/04/22 03:57:15;;;;;;;19.42;6.00;;;;;;;2.36;70.38;102814.28;5036775;28;20369;-74
2021/04/22 03:59:42;;;;;;;15.02;4.72;;;;;;;2.37;70.25;102813.44;5036478;28;20148;-74
2021/04/22 04:02:09;;;;;;;13.10;4.32;;;;;;;2.37;70.26;102808.19;5036744;28;20083;-74
2021/04/22 04:04:36;;;;;;;16.33;5.03;;;;;;;2.30;70.25;102804.44;5035458;28;21008;-75
2021/04/22 04:07:03;;;;;;;14.68;4.50;;;;;;;2.28;70.30;102816.66;5039362;28;20061;-74
2021/04/22 04:09:30;;;;;;;16.33;5.13;;;;;;;2.27;70.40;102814.00;5033532;28;20062;-75
2021/04/22 04:11:58;;;;;;;17.50;5.10;;;;;;;2.26;70.02;102814.81;5036800;28;20061;-74
2021/04/22 04:14:25;;;;;;;12.85;4.45;;;;;;;2.20;70.12;102816.41;5036843;28;20068;-73
2021/04/22 04:16:51;;;;;;;20.02;5.07;;;;;;;2.19;70.41;102817.22;5040754;28;20236;-73
2021/04/22 04:19:19;;;;;;;12.73;3.83;;;;;;;2.15;70.66;102815.34;5040277;28;20076;-71
2021/04/22 04:21:47;;;;;;;15.70;3.58;;;;;;;2.12;70.42;102820.50;5037857;28;20061;-71
2021/04/22 04:24:14;;;;;;;17.27;4.43;;;;;;;2.03;71.05;102831.63;5039504;28;20069;-71
2021/04/22 04:26:41;;;;;;;13.73;4.60;;;;;;;2.01;71.38;102820.16;5040087;28;20506;-71
2021/04/22 04:29:09;;;;;;;12.18;5.18;;;;;;;1.94;71.03;102825.13;5040991;28;20576;-72
2021/04/22 04:31:36;;;;;;;20.05;6.97;;;;;;;1.90;71.52;102828.50;5035557;28;20106;-72
2021/04/22 04:34:03;;;;;;;17.63;6.68;;;;;;;1.89;72.26;102822.34;5041464;28;20057;-72
2021/04/22 04:36:30;;;;;;;18.52;6.60;;;;;;;1.84;71.92;102832.72;5038410;28;20345;-72
2021/04/22 04:38:57;;;;;;;22.50;7.50;;;;;;;1.81;72.18;102836.97;5042351;28;20056;-70
2021/04/22 04:41:24;;;;;;;12.75;4.53;;;;;;;1.76;72.43;102822.75;5038833;28;20785;-70
2021/04/22 04:43:51;;;;;;;21.05;5.05;;;;;;;1.75;71.96;102834.13;5039440;28;20057;-71
2021/04/22 04:46:19;;;;;;;17.15;4.43;;;;;;;1.78;72.30;102834.22;5035855;28;20178;-70
2021/04/22 04:48:47;;;;;;;12.52;4.10;;;;;;;1.77;72.20;102838.59;5038390;28;20080;-72
2021/04/22 04:51:15;;;;;;;13.05;3.70;;;;;;;1.81;72.25;102836.97;5035201;28;20061;-71
2021/04/22 04:53:42;;;;;;;18.45;4.63;;;;;;;1.79;72.17;102839.56;5040109;28;20148;-71
2021/04/22 04:56:09;;;;;;;19.10;5.38;;;;;;;1.82;72.65;102849.28;5038776;28;20064;-71
2021/04/22 04:58:37;;;;;;;14.90;5.10;;;;;;;1.77;72.50;102851.78;5042427;28;20061;-72
2021/04/22 05:01:04;;;;;;;13.05;4.18;;;;;;;1.82;72.60;102851.91;5032459;28;20448;-72
2021/04/22 05:03:32;;;;;;;13.40;4.28;;;;;;;1.78;72.59;102848.28;5043292;28;20111;-72
2021/04/22 05:05:59;;;;;;;13.63;3.97;;;;;;;1.83;72.63;102851.97;5037854;28;20061;-70
2021/04/22 05:08:26;;;;;;;12.07;3.45;;;;;;;1.80;72.31;102853.59;5053287;28;20151;-71
2021/04/22 05:10:53;;;;;;;9.55;4.03;;;;;;;1.91;72.64;102864.50;5039528;28;20080;-71
2021/04/22 05:13:19;;;;;;;20.92;4.55;;;;;;;1.97;72.33;102870.00;5038962;28;20652;-71
2021/04/22 05:15:47;;;;;;;10.50;4.50;;;;;;;2.04;72.03;102862.41;5040008;28;20399;-71
2021/04/22 05:18:14;;;;;;;13.32;4.03;;;;;;;2.04;71.67;102857.13;5036347;28;20072;-71
2021/04/22 05:20:43;;;;;;;15.52;5.07;;;;;;;2.17;71.21;102861.06;5040128;28;20057;-72
2021/04/22 05:23:10;;;;;;;14.00;5.35;;;;;;;2.33;71.29;102873.03;5036910;28;20064;-72
2021/04/22 05:25:37;;;;;;;20.33;5.38;;;;;;;2.51;70.84;102861.34;5038594;28;20136;-72
2021/04/22 05:28:04;;;;;;;12.43;5.13;;;;;;;2.69;70.44;102867.22;5036360;28;20052;-72
2021/04/22 05:30:31;;;;;;;13.63;4.30;;;;;;;2.84;69.94;102869.44;5037910;28;20240;-72
2021/04/22 05:32:58;;;;;;;16.13;3.88;;;;;;;3.11;69.23;102874.69;5035587;28;20064;-73
2021/04/22 05:35:25;;;;;;;15.52;4.53;;;;;;;3.38;69.30;102870.25;5037639;28;20391;-73
2021/04/22 05:37:53;;;;;;;19.35;4.93;;;;;;;3.68;69.45;102872.91;5039038;28;20053;-74
2021/04/22 05:40:21;;;;;;;17.15;4.22;;;;;;;3.88;67.62;102876.06;5038119;28;20057;-72
2021/04/22 05:42:48;;;;;;;12.02;4.63;;;;;;;4.20;67.16;102874.31;5036638;28;20145;-73
2021/04/22 05:45:17;;;;;;;12.57;4.20;;;;;;;4.52;66.75;102878.69;5037166;28;20444;-73
2021/04/22 05:47:45;;;;;;;16.63;5.05;;;;;;;4.71;65.19;102875.63;5037021;28;20061;-73
2021/04/22 05:50:13;;;;;;;13.00;4.47;;;;;;;4.93;65.14;102882.31;5038444;28;20061;-71
2021/04/22 05:52:41;;;;;;;14.77;4.50;;;;;;;5.21;64.22;102875.03;5038982;28;20053;-71
2021/04/22 05:55:10;;;;;;;15.27;3.78;;;;;;;5.23;63.20;102879.50;5036491;28;20107;-74
2021/04/22 05:57:38;;;;;;;11.75;4.25;;;;;;;5.28;63.56;102878.72;5037500;28;20072;-72
2021/04/22 06:00:08;;;;;;;13.63;4.05;;;;;;;5.18;63.54;102886.44;5037329;28;20063;-72
2021/04/22 06:02:35;;;;;;;13.50;4.32;;;;;;;5.09;62.75;102880.03;5038135;28;20084;-71
2021/04/22 06:05:02;;;;;;;11.18;6.63;;;;;;;5.14;62.32;102884.59;5036290;28;20068;-71
2021/04/22 06:07:29;;;;;;;13.40;4.43;;;;;;;5.88;61.50;102885.28;5038508;28;20347;-72
2021/04/22 06:09:56;;;;;;;13.20;4.70;;;;;;;6.27;59.45;102884.31;5034734;28;20056;-72
2021/04/22 06:12:24;;;;;;;12.93;3.83;;;;;;;6.53;58.99;102888.28;5040864;28;20148;-71
2021/04/22 06:14:51;;;;;;;15.80;3.50;;;;;;;6.41;58.50;102889.84;5036610;28;20052;-71
2021/04/22 06:17:18;;;;;;;10.00;4.60;;;;;;;6.88;58.28;102893.31;5038301;28;20455;-74
2021/04/22 06:19:45;;;;;;;17.23;3.95;;;;;;;7.26;56.14;102892.09;5037247;28;20057;-72
2021/04/22 06:22:12;;;;;;;11.63;3.67;;;;;;;7.08;55.96;102884.75;5038999;28;20061;-71
2021/04/22 06:24:39;;;;;;;8.88;3.50;;;;;;;7.76;56.11;102891.00;5035428;28;20065;-72
2021/04/22 06:27:07;;;;;;;14.98;4.53;;;;;;;8.05;53.89;102888.66;5038444;28;20460;-72
2021/04/22 06:29:35;;;;;;;12.98;3.92;;;;;;;8.34;53.82;102896.97;5034252;28;20064;-71
2021/04/22 06:32:03;;;;;;;13.27;3.50;;;;;;;8.59;53.06;102886.59;5037081;28;20555;-71
2021/04/22 06:34:30;;;;;;;15.48;4.22;;;;;;;8.58;51.13;102892.78;5036611;28;20083;-74
2021/04/22 06:36:59;;;;;;;14.55;4.15;;;;;;;8.78;50.68;102891.19;5038255;28;20057;-74
2021/04/22 06:39:27;;;;;;;11.57;3.25;;;;;;;8.97;50.37;102899.31;5038944;28;20061;-74
2021/04/22 06:41:54;;;;;;;11.18;3.78;;;;;;;9.02;49.61;102902.00;5034598;28;20145;-73
2021/04/22 06:44:21;;;;;;;11.40;3.15;;;;;;;9.08;48.55;102896.75;5038323;28;20071;-75
2021/04/22 06:46:48;;;;;;;17.48;3.50;;;;;;;9.23;49.17;102903.91;5034302;28;20064;-74
2021/04/22 06:49:15;;;;;;;17.17;4.28;;;;;;;9.46;49.26;102902.28;5033493;28;20073;-74
2021/04/22 06:51:42;;;;;;;17.73;3.65;;;;;;;9.78;47.91;102906.00;5034387;28;20084;-75
2021/04/22 06:54:09;;;;;;;13.07;3.20;;;;;;;9.84;46.57;102911.34;5036196;28;20067;-74
2021/04/22 06:56:37;;;;;;;8.90;2.90;;;;;;;9.64;46.59;102900.63;5036714;28;20069;-74
2021/04/22 06:59:05;;;;;;;9.05;3.05;;;;;;;9.94;46.02;102904.28;5036929;28;20320;-76
2021/04/22 07:01:32;;;;;;;10.07;3.50;;;;;;;9.70;46.28;102905.97;5029800;28;20444;-75
2021/04/22 07:04:00;;;;;;;14.25;4.18;;;;;;;9.54;45.38;102905.88;5036669;28;20068;-76
2021/04/22 07:06:27;;;;;;;9.45;3.78;;;;;;;9.72;46.66;102912.19;5034586;28;20061;-75
2021/04/22 07:08:54;;;;;;;13.48;3.72;;;;;;;9.46;46.61;102914.72;5035146;28;20065;-75
2021/04/22 07:11:21;;;;;;;10.85;4.30;;;;;;;8.91;47.42;102915.25;5036915;28;20155;-75
2021/04/22 07:13:48;;;;;;;11.63;3.40;;;;;;;9.09;47.67;102918.06;5035892;28;20376;-76
2021/04/22 07:16:16;;;;;;;14.05;3.70;;;;;;;9.22;47.35;102923.47;5036452;28;20486;-75
2021/04/22 07:18:43;;;;;;;9.57;3.63;;;;;;;9.53;46.30;102922.78;5037485;28;20053;-75
2021/04/22 07:21:10;;;;;;;17.60;3.63;;;;;;;9.54;46.19;102926.31;5033683;28;20099;-75
2021/04/22 07:23:39;;;;;;;11.43;3.65;;;;;;;9.09;47.70;102927.78;5035624;28;20521;-75
2021/04/22 07:26:06;;;;;;;10.13;2.80;;;;;;;8.74;47.70;102925.75;5035713;28;20120;-75
2021/04/22 07:28:35;;;;;;;12.15;3.38;;;;;;;9.01;47.74;102933.09;5037651;28;20053;-75
2021/04/22 07:31:15;;;;;;;13.57;3.20;;;;;;;9.30;46.25;102929.75;5037174;28;20061;-74
2021/04/22 07:33:46;;;;;;;10.93;3.38;;;;;;;9.80;45.41;102929.09;5035333;28;20152;-75
2021/04/22 07:36:14;;;;;;;11.55;3.78;;;;;;;10.12;44.43;102924.78;5038933;28;20064;-74
2021/04/22 07:38:42;;;;;;;13.50;3.90;;;;;;;9.70;45.97;102935.28;5035791;28;20061;-74
2021/04/22 07:41:10;;;;;;;10.18;3.00;;;;;;;9.27;46.50;102935.91;5036201;28;20080;-74
2021/04/22 07:43:37;;;;;;;10.15;3.25;;;;;;;9.40;47.04;102947.56;5033716;28;20061;-75
2021/04/22 07:46:04;;;;;;;11.10;2.90;;;;;;;10.31;45.76;102936.41;5033068;28;20062;-74
2021/04/22 07:48:32;;;;;;;8.27;3.42;;;;;;;10.38;43.38;102947.13;5035423;28;20061;-74
2021/04/22 07:50:59;;;;;;;9.45;2.97;;;;;;;9.51;45.06;102959.16;5038913;28;20057;-73
2021/04/22 07:53:28;;;;;;;11.02;3.95;;;;;;;9.12;45.39;102955.34;5051033;28;20053;-73
2021/04/22 07:55:55;;;;;;;10.85;3.13;;;;;;;8.53;47.13;102959.28;5038649;28;20053;-74
2021/04/22 07:58:22;;;;;;;12.93;3.22;;;;;;;8.58;47.21;102962.88;5036472;28;20392;-74
2021/04/22 08:00:50;;;;;;;9.90;3.15;;;;;;;8.76;47.20;102963.94;5038174;28;20057;-74
2021/04/22 08:03:18;;;;;;;10.55;2.80;;;;;;;8.58;47.29;102954.91;5036394;28;20065;-75
2021/04/22 08:05:47;;;;;;;8.95;2.97;;;;;;;8.63;47.69;102967.34;5037243;28;20069;-73
2021/04/22 08:08:15;;;;;;;8.48;2.88;;;;;;;8.69;47.74;102965.63;5039355;28;20254;-74
2021/04/22 08:10:44;;;;;;;16.27;3.13;;;;;;;8.31;48.22;102974.09;5035407;28;20262;-74
2021/04/22 08:13:14;;;;;;;8.77;3.30;;;;;;;8.51;48.27;102961.03;5043990;28;20143;-74
2021/04/22 08:15:42;;;;;;;14.05;3.65;;;;;;;8.75;47.36;102954.13;5038547;28;20084;-74
2021/04/22 08:18:10;;;;;;;9.85;3.55;;;;;;;9.77;46.05;102965.53;5033262;28;20420;-73
2021/04/22 08:20:37;;;;;;;8.93;3.20;;;;;;;10.35;43.75;102964.91;5038513;28;20060;-74
2021/04/22 08:23:07;;;;;;;7.70;2.58;;;;;;;10.59;43.28;102959.63;5037591;28;20436;-76
2021/04/22 08:25:37;;;;;;;10.85;3.58;;;;;;;10.73;42.17;102954.31;5037680;28;20061;-74
2021/04/22 08:28:08;;;;;;;9.45;3.05;;;;;;;10.93;42.09;102950.72;5038294;28;20057;-73
2021/04/22 08:30:38;;;;;;;10.07;3.13;;;;;;;11.09;41.67;102957.00;5038653;28;20076;-76
2021/04/22 08:33:05;;;;;;;9.88;3.80;;;;;;;10.99;41.64;102962.31;5038209;28;20444;-74
2021/04/22 08:35:32;;;;;;;13.95;4.13;;;;;;;11.23;41.64;102952.50;5033290;28;20068;-75
2021/04/22 08:37:59;;;;;;;11.93;5.32;;;;;;;11.74;40.94;102955.06;5040108;28;20487;-74
2021/04/22 08:40:27;;;;;;;8.40;3.42;;;;;;;11.62;40.84;102958.66;5037722;28;20072;-73
2021/04/22 08:42:54;;;;;;;8.52;3.95;;;;;;;11.47;40.57;102956.91;5039162;28;20143;-73
2021/04/22 08:45:22;;;;;;;13.93;4.40;;;;;;;11.35;41.31;102960.50;5037574;28;20107;-73
2021/04/22 08:47:50;;;;;;;9.45;3.72;;;;;;;11.65;40.23;102960.47;5037457;28;20065;-73
2021/04/22 08:50:21;;;;;;;11.00;3.70;;;;;;;11.18;41.67;102959.63;5051788;28;20053;-72
2021/04/22 08:52:49;;;;;;;12.32;3.97;;;;;;;10.42;42.87;102970.28;5040701;28;20504;-72
2021/04/22 08:55:17;;;;;;;13.10;3.60;;;;;;;10.80;41.55;102958.75;5039414;28;20152;-72
2021/04/22 08:57:44;;;;;;;12.68;3.83;;;;;;;10.20;42.68;102963.03;5039327;28;20098;-74
2021/04/22 09:00:15;;;;;;;9.75;3.22;;;;;;;9.76;44.33;102969.97;5037961;28;20061;-73
2021/04/22 09:02:43;;;;;;;10.20;4.18;;;;;;;9.79;44.67;102969.09;5037422;28;20424;-74
2021/04/22 09:05:12;;;;;;;11.75;3.58;;;;;;;9.26;45.20;102968.78;5040185;28;20098;-72
2021/04/22 09:07:40;;;;;;;16.50;4.15;;;;;;;9.11;46.61;102969.56;5036289;28;20636;-73
2021/04/22 09:10:09;;;;;;;9.23;3.13;;;;;;;10.52;43.86;102973.88;5037811;28;20459;-74
2021/04/22 09:12:36;;;;;;;9.60;3.30;;;;;;;11.33;42.45;102959.63;5051052;28;20060;-75
2021/04/22 09:15:08;;;;;;;9.13;3.65;;;;;;;11.28;41.81;102960.53;5039654;28;20114;-73
2021/04/22 09:17:35;;;;;;;9.32;3.58;;;;;;;12.58;41.22;102950.22;5036861;28;20059;-75
2021/04/22 09:20:06;;;;;;;10.88;3.45;;;;;;;12.19;39.66;102953.16;5037734;28;20068;-74
2021/04/22 09:22:35;;;;;;;13.73;3.30;;;;;;;12.33;39.61;102961.97;5037837;28;20629;-74
2021/04/22 09:25:15;;;;;;;12.30;3.63;;;;;;;12.07;39.78;102966.56;5036441;28;20388;-75
2021/04/22 09:27:42;;;;;;;7.82;3.05;;;;;;;12.36;39.46;102955.72;5036036;28;20092;-76
2021/04/22 09:30:11;;;;;;;10.38;3.78;;;;;;;12.05;38.77;102961.22;5037533;28;20215;-75
2021/04/22 09:32:39;;;;;;;13.57;3.75;;;;;;;12.06;39.54;102956.78;5037444;28;20466;-75
2021/04/22 09:35:10;;;;;;;11.13;3.92;;;;;;;12.19;39.46;102953.16;5038536;28;20060;-75
2021/04/22 09:37:39;;;;;;;6.65;3.42;;;;;;;12.40;38.74;102960.16;5038441;28;20196;-76
2021/04/22 09:40:15;;;;;;;8.95;3.53;;;;;;;12.83;39.00;102950.94;5038539;28;20471;-76
2021/04/22 09:42:43;;;;;;;13.15;4.20;;;;;;;12.75;38.37;102953.66;5038055;28;20131;-74
2021/04/22 09:45:11;;;;;;;10.82;3.30;;;;;;;13.00;37.73;102950.78;5036595;28;20061;-76
2021/04/22 09:47:39;;;;;;;11.25;4.07;;;;;;;13.20;38.09;102946.13;5039006;28;20064;-74
2021/04/22 09:50:13;;;;;;;10.68;3.88;;;;;;;12.75;38.12;102950.97;5040539;28;20068;-74
2021/04/22 09:52:43;;;;;;;9.35;3.88;;;;;;;13.25;37.83;102952.34;5036724;28;20084;-73
2021/04/22 09:55:13;;;;;;;10.07;4.10;;;;;;;13.47;36.37;102962.88;5037805;28;20065;-74
2021/04/22 09:57:41;;;;;;;9.75;3.97;;;;;;;13.72;37.51;102960.78;5038805;28;20361;-73
2021/04/22 10:00:13;;;;;;;10.25;3.67;;;;;;;13.38;37.32;102950.47;5035591;28;20082;-71
2021/04/22 10:02:45;;;;;;;9.95;4.07;;;;;;;13.64;36.16;102947.50;5037585;28;20313;-72
2021/04/22 10:05:19;;;;;;;10.70;4.00;;;;;;;13.15;37.81;102945.28;5034913;28;20110;-72
2021/04/22 10:07:46;;;;;;;;;;;;;;;12.65;37.27;102958.22;5038159;28;21006;-72
2021/04/22 10:10:17;;;;;;;11.65;3.95;;;;;;;13.57;37.11;102958.28;5036258;28;19925;-70
2021/04/22 10:12:44;;;;;;;12.52;3.90;;;;;;;13.95;37.52;102956.97;5038187;28;20064;-71
2021/04/22 10:15:14;;;;;;;11.80;3.92;;;;;;;14.39;36.11;102955.47;5034781;28;20072;-71
2021/04/22 10:17:41;;;;;;;9.27;3.63;;;;;;;13.99;36.03;102962.25;5039764;28;20092;-71
2021/04/22 10:20:11;;;;;;;10.88;3.78;;;;;;;13.35;37.31;102954.94;5033755;28;20708;-72
2021/04/22 10:22:43;;;;;;;10.32;3.40;;;;;;;13.67;36.60;102961.78;5041035;28;20087;-72
2021/04/22 10:25:12;;;;;;;9.80;3.15;;;;;;;14.29;36.24;102953.84;5033055;28;20258;-74
2021/04/22 10:27:40;;;;;;;10.57;3.10;;;;;;;13.75;35.81;102966.13;5034023;28;20088;-71
2021/04/22 10:30:10;;;;;;;12.32;3.58;;;;;;;14.43;35.18;102959.88;5036141;28;20103;-71
2021/04/22 10:32:39;;;;;;;8.20;2.83;;;;;;;14.78;34.82;102953.13;5039652;28;20146;-72
2021/04/22 10:35:13;;;;;;;10.68;3.10;;;;;;;14.30;35.49;102953.81;5039048;28;20069;-72
2021/04/22 10:37:42;;;;;;;12.43;3.70;;;;;;;14.08;35.07;102955.91;5038164;28;20385;-71
2021/04/22 10:40:11;;;;;;;7.65;3.55;;;;;;;14.72;35.06;102954.09;5037779;28;20843;-72
2021/04/22 10:42:39;;;;;;;8.82;3.50;;;;;;;15.41;33.99;102940.34;5037733;28;20882;-71
2021/04/22 10:45:09;;;;;;;14.27;3.72;;;;;;;15.68;33.90;102952.38;5037102;28;20058;-72
2021/04/22 10:47:37;;;;;;;8.07;3.08;;;;;;;15.19;32.70;102956.91;5039806;28;20067;-72
2021/04/22 10:50:09;;;;;;;10.43;3.22;;;;;;;14.18;35.18;102960.25;5034928;28;20527;-72
2021/04/22 10:52:37;;;;;;;14.60;4.18;;;;;;;13.75;35.52;102958.09;5035024;28;20496;-70
2021/04/22 10:55:15;;;;;;;13.52;4.95;;;;;;;13.76;35.75;102959.00;5039408;28;20114;-72
2021/04/22 10:57:43;;;;;;;13.40;4.25;;;;;;;14.71;34.24;102949.66;5035838;28;20057;-73
2021/04/22 11:00:12;;;;;;;8.38;3.67;;;;;;;14.79;35.09;102952.19;5038465;28;20459;-75
2021/04/22 11:02:45;;;;;;;8.43;3.70;;;;;;;15.34;32.70;102952.16;5038135;28;20057;-75
2021/04/22 11:05:25;;;;;;;10.80;3.95;;;;;;;15.12;34.29;102950.75;5038911;28;20646;-74
2021/04/22 11:08:04;;;;;;;10.98;3.67;;;;;;;15.77;33.91;102943.28;5041788;28;20148;-74
2021/04/22 11:10:35;;;;;;;9.55;3.75;;;;;;;15.82;33.09;102949.47;5037268;28;20061;-75
2021/04/22 11:13:10;;;;;;;12.80;3.97;;;;;;;15.55;32.48;102940.13;5053083;28;20067;-72
2021/04/22 11:15:38;;;;;;;7.35;3.17;;;;;;;15.38;34.46;102944.00;5036070;28;20138;-72
2021/04/22 11:18:10;;;;;;;10.50;3.60;;;;;;;15.52;33.18;102941.03;5031167;28;20064;-73
2021/04/22 11:20:40;;;;;;;8.45;3.75;;;;;;;15.36;33.03;102940.47;5054978;28;20151;-76
2021/04/22 11:23:15;;;;;;;11.43;4.15;;;;;;;14.19;34.61;102945.91;5035070;28;20057;-74
2021/04/22 11:25:51;;;;;;;9.57;3.88;;;;;;;13.89;35.71;102949.88;5037637;28;20056;-74
2021/04/22 11:28:29;;;;;;;11.90;4.10;;;;;;;14.73;34.58;102950.50;5035095;28;20352;-72